Terminal Aerodrome Forecast
Issued by NWS

Home | Current Version | Previous Version | Graphics & Text | Print | Product List | Glossary On
Versions: 1 2 3 4 5 6 7 8 9 10 11 12 13 14 15 16 17
000
FTUS43 KFGF 261700
TAFBJI
TAF
KBJI 261735Z 2618/2718 25012G19KT P6SM SCT250
     FM262100 26014G22KT P6SM BKN050
     FM270000 27014KT P6SM VCSH BKN040
     FM271200 30013KT P6SM VCSH BKN035
     FM271500 33014G22KT P6SM BKN035=

USA.gov is the U.S. government's official web portal to all federal, state and local government web resources and services.